sensor_id;sensor_type;location;lat;lon;timestamp;P1;durP1;ratioP1;P2;durP2;ratioP2
74412;SDS011;62848;55.798;37.608;2022-08-21T08:02:46;39.90;;;25.50;;
74412;SDS011;62848;55.798;37.608;2022-08-21T08:07:42;36.45;;;27.85;;
74412;SDS011;62848;55.798;37.608;2022-08-21T08:10:09;44.92;;;26.90;;
74412;SDS011;62848;55.798;37.608;2022-08-21T08:12:37;39.25;;;27.45;;
74412;SDS011;62848;55.798;37.608;2022-08-21T08:15:06;40.37;;;26.57;;
74412;SDS011;62848;55.798;37.608;2022-08-21T08:17:36;34.67;;;24.60;;
74412;SDS011;62848;55.798;37.608;2022-08-21T08:20:04;34.22;;;25.23;;
74412;SDS011;62848;55.798;37.608;2022-08-21T08:22:33;36.45;;;24.67;;
74412;SDS011;62848;55.798;37.608;2022-08-21T08:25:00;31.50;;;24.27;;
74412;SDS011;62848;55.798;37.608;2022-08-21T08:27:27;35.72;;;23.83;;
74412;SDS011;62848;55.798;37.608;2022-08-21T08:29:53;40.55;;;24.17;;
74412;SDS011;62848;55.798;37.608;2022-08-21T08:32:20;39.58;;;24.27;;
74412;SDS011;62848;55.798;37.608;2022-08-21T08:34:47;34.65;;;24.73;;
74412;SDS011;62848;55.798;37.608;2022-08-21T08:37:16;40.97;;;26.23;;
74412;SDS011;62848;55.798;37.608;2022-08-21T08:39:43;34.28;;;25.15;;
74412;SDS011;62848;55.798;37.608;2022-08-21T08:44:41;37.22;;;24.60;;
74412;SDS011;62848;55.798;37.608;2022-08-21T08:47:16;34.27;;;25.30;;
74412;SDS011;62848;55.798;37.608;2022-08-21T08:50:07;33.65;;;23.70;;
74412;SDS011;62848;55.798;37.608;2022-08-21T08:52:47;34.65;;;23.73;;
74412;SDS011;62848;55.798;37.608;2022-08-21T08:55:31;31.17;;;20.77;;
74412;SDS011;62848;55.798;37.608;2022-08-21T08:58:01;28.00;;;20.15;;
74412;SDS011;62848;55.798;37.608;2022-08-21T09:00:28;34.10;;;19.98;;
74412;SDS011;62848;55.798;37.608;2022-08-21T09:02:57;32.35;;;18.65;;
74412;SDS011;62848;55.798;37.608;2022-08-21T09:05:35;30.70;;;18.95;;
74412;SDS011;62848;55.798;37.608;2022-08-21T09:11:15;23.98;;;16.80;;
74412;SDS011;62848;55.798;37.608;2022-08-21T09:27:53;28.40;;;19.92;;
74412;SDS011;62848;55.798;37.608;2022-08-21T09:30:25;28.90;;;19.60;;
74412;SDS011;62848;55.798;37.608;2022-08-21T09:32:55;33.22;;;20.33;;
74412;SDS011;62848;55.798;37.608;2022-08-21T09:35:22;30.50;;;20.05;;
74412;SDS011;62848;55.798;37.608;2022-08-21T09:37:54;27.45;;;19.30;;
74412;SDS011;62848;55.798;37.608;2022-08-21T09:45:29;28.52;;;16.48;;
74412;SDS011;62848;55.798;37.608;2022-08-21T09:48:07;27.17;;;15.60;;
74412;SDS011;62848;55.798;37.608;2022-08-21T09:50:34;29.52;;;14.88;;
74412;SDS011;62848;55.798;37.608;2022-08-21T09:53:01;26.60;;;16.48;;
74412;SDS011;62848;55.798;37.608;2022-08-21T09:58:18;27.45;;;15.27;;
74412;SDS011;62848;55.798;37.608;2022-08-21T10:00:47;23.70;;;15.05;;
74412;SDS011;62848;55.798;37.608;2022-08-21T10:03:23;24.38;;;15.07;;
74412;SDS011;62848;55.798;37.608;2022-08-21T10:06:01;23.33;;;14.93;;
74412;SDS011;62848;55.798;37.608;2022-08-21T10:08:30;24.10;;;15.13;;
74412;SDS011;62848;55.798;37.608;2022-08-21T10:11:05;30.25;;;15.23;;
74412;SDS011;62848;55.798;37.608;2022-08-21T10:14:21;21.30;;;14.77;;
74412;SDS011;62848;55.798;37.608;2022-08-21T10:16:33;25.45;;;15.38;;
74412;SDS011;62848;55.798;37.608;2022-08-21T10:24:38;25.38;;;16.27;;
74412;SDS011;62848;55.798;37.608;2022-08-21T10:35:14;21.38;;;10.50;;
74412;SDS011;62848;55.798;37.608;2022-08-21T10:44:49;20.20;;;9.20;;
74412;SDS011;62848;55.798;37.608;2022-08-21T10:46:57;17.13;;;9.57;;
74412;SDS011;62848;55.798;37.608;2022-08-21T10:49:47;16.25;;;9.95;;
74412;SDS011;62848;55.798;37.608;2022-08-21T10:52:47;19.98;;;9.88;;
74412;SDS011;62848;55.798;37.608;2022-08-21T10:55:30;18.25;;;9.73;;
74412;SDS011;62848;55.798;37.608;2022-08-21T10:58:45;17.27;;;9.65;;
74412;SDS011;62848;55.798;37.608;2022-08-21T11:01:03;17.83;;;9.25;;
74412;SDS011;62848;55.798;37.608;2022-08-21T11:03:42;16.55;;;9.07;;
74412;SDS011;62848;55.798;37.608;2022-08-21T11:06:19;20.40;;;8.75;;
74412;SDS011;62848;55.798;37.608;2022-08-21T11:08:57;20.17;;;7.90;;
74412;SDS011;62848;55.798;37.608;2022-08-21T11:16:48;18.25;;;6.88;;
74412;SDS011;62848;55.798;37.608;2022-08-21T11:19:42;15.90;;;7.40;;
74412;SDS011;62848;55.798;37.608;2022-08-21T11:22:17;20.88;;;8.25;;
74412;SDS011;62848;55.798;37.608;2022-08-21T11:24:59;21.50;;;8.23;;
74412;SDS011;62848;55.798;37.608;2022-08-21T11:27:40;21.05;;;8.77;;
74412;SDS011;62848;55.798;37.608;2022-08-21T11:30:09;16.52;;;8.27;;
74412;SDS011;62848;55.798;37.608;2022-08-21T11:41:30;24.05;;;9.48;;
74412;SDS011;62848;55.798;37.608;2022-08-21T11:47:08;32.92;;;10.73;;
74412;SDS011;62848;55.798;37.608;2022-08-21T11:52:33;20.77;;;11.07;;
74412;SDS011;62848;55.798;37.608;2022-08-21T12:00:36;20.38;;;12.43;;
74412;SDS011;62848;55.798;37.608;2022-08-21T12:03:11;20.73;;;11.15;;
74412;SDS011;62848;55.798;37.608;2022-08-21T12:05:42;15.82;;;9.85;;
74412;SDS011;62848;55.798;37.608;2022-08-21T12:08:30;19.10;;;9.93;;
74412;SDS011;62848;55.798;37.608;2022-08-21T12:11:08;21.02;;;9.98;;
74412;SDS011;62848;55.798;37.608;2022-08-21T12:13:57;18.77;;;9.63;;
74412;SDS011;62848;55.798;37.608;2022-08-21T12:19:04;18.75;;;9.38;;
74412;SDS011;62848;55.798;37.608;2022-08-21T12:21:34;18.58;;;9.35;;
74412;SDS011;62848;55.798;37.608;2022-08-21T12:26:53;14.80;;;8.63;;
74412;SDS011;62848;55.798;37.608;2022-08-21T12:29:30;21.35;;;9.73;;
74412;SDS011;62848;55.798;37.608;2022-08-21T12:40:18;20.90;;;8.15;;
74412;SDS011;62848;55.798;37.608;2022-08-21T12:43:03;28.17;;;9.33;;
74412;SDS011;62848;55.798;37.608;2022-08-21T12:45:38;21.98;;;8.90;;
74412;SDS011;62848;55.798;37.608;2022-08-21T12:53:31;18.00;;;9.40;;
74412;SDS011;62848;55.798;37.608;2022-08-21T12:56:09;18.92;;;9.43;;
74412;SDS011;62848;55.798;37.608;2022-08-21T12:58:39;17.98;;;10.05;;
74412;SDS011;62848;55.798;37.608;2022-08-21T13:01:16;21.40;;;9.38;;
74412;SDS011;62848;55.798;37.608;2022-08-21T13:03:57;24.85;;;9.90;;
74412;SDS011;62848;55.798;37.608;2022-08-21T13:06:27;16.48;;;10.10;;
74412;SDS011;62848;55.798;37.608;2022-08-21T13:09:08;19.50;;;10.15;;
74412;SDS011;62848;55.798;37.608;2022-08-21T13:11:38;18.70;;;9.90;;
74412;SDS011;62848;55.798;37.608;2022-08-21T13:14:06;16.92;;;8.70;;
74412;SDS011;62848;55.798;37.608;2022-08-21T13:16:54;19.00;;;9.75;;
74412;SDS011;62848;55.798;37.608;2022-08-21T13:19:24;17.50;;;10.80;;
74412;SDS011;62848;55.798;37.608;2022-08-21T13:21:51;24.45;;;10.45;;
74412;SDS011;62848;55.798;37.608;2022-08-21T13:24:20;18.13;;;9.73;;
74412;SDS011;62848;55.798;37.608;2022-08-21T13:26:48;16.42;;;9.70;;
74412;SDS011;62848;55.798;37.608;2022-08-21T13:29:17;18.45;;;9.68;;
74412;SDS011;62848;55.798;37.608;2022-08-21T13:34:14;22.48;;;10.38;;
74412;SDS011;62848;55.798;37.608;2022-08-21T13:36:42;27.63;;;10.48;;
74412;SDS011;62848;55.798;37.608;2022-08-21T13:39:12;16.60;;;10.65;;
74412;SDS011;62848;55.798;37.608;2022-08-21T13:41:44;18.88;;;10.13;;
74412;SDS011;62848;55.798;37.608;2022-08-21T13:46:41;18.77;;;10.75;;
74412;SDS011;62848;55.798;37.608;2022-08-21T13:49:09;18.42;;;10.43;;
74412;SDS011;62848;55.798;37.608;2022-08-21T13:51:38;22.40;;;10.82;;
74412;SDS011;62848;55.798;37.608;2022-08-21T13:54:15;21.38;;;11.95;;
74412;SDS011;62848;55.798;37.608;2022-08-21T13:56:58;23.52;;;11.55;;
74412;SDS011;62848;55.798;37.608;2022-08-21T13:59:31;18.27;;;12.05;;
74412;SDS011;62848;55.798;37.608;2022-08-21T14:02:16;21.80;;;12.93;;
74412;SDS011;62848;55.798;37.608;2022-08-21T14:05:00;25.23;;;16.63;;
74412;SDS011;62848;55.798;37.608;2022-08-21T14:10:12;24.90;;;17.98;;
74412;SDS011;62848;55.798;37.608;2022-08-21T14:15:17;25.80;;;17.15;;
74412;SDS011;62848;55.798;37.608;2022-08-21T14:17:48;23.40;;;15.60;;
74412;SDS011;62848;55.798;37.608;2022-08-21T14:20:30;23.08;;;15.30;;
74412;SDS011;62848;55.798;37.608;2022-08-21T14:22:59;26.55;;;17.20;;
74412;SDS011;62848;55.798;37.608;2022-08-21T14:25:44;28.27;;;18.33;;
74412;SDS011;62848;55.798;37.608;2022-08-21T14:28:26;23.55;;;17.92;;
74412;SDS011;62848;55.798;37.608;2022-08-21T14:31:17;30.42;;;18.88;;
74412;SDS011;62848;55.798;37.608;2022-08-21T14:33:46;29.10;;;20.13;;
74412;SDS011;62848;55.798;37.608;2022-08-21T14:36:13;25.50;;;18.35;;
74412;SDS011;62848;55.798;37.608;2022-08-21T14:38:39;25.25;;;14.10;;
74412;SDS011;62848;55.798;37.608;2022-08-21T14:41:25;23.67;;;15.40;;
74412;SDS011;62848;55.798;37.608;2022-08-21T14:43:54;27.65;;;15.55;;
74412;SDS011;62848;55.798;37.608;2022-08-21T14:46:23;19.23;;;13.00;;
74412;SDS011;62848;55.798;37.608;2022-08-21T14:48:53;22.35;;;10.95;;
74412;SDS011;62848;55.798;37.608;2022-08-21T14:51:19;17.55;;;9.48;;
74412;SDS011;62848;55.798;37.608;2022-08-21T14:53:46;17.83;;;10.57;;
74412;SDS011;62848;55.798;37.608;2022-08-21T14:56:13;20.02;;;10.43;;
74412;SDS011;62848;55.798;37.608;2022-08-21T14:58:41;19.73;;;9.77;;
74412;SDS011;62848;55.798;37.608;2022-08-21T15:01:10;21.98;;;10.23;;
74412;SDS011;62848;55.798;37.608;2022-08-21T15:03:38;21.38;;;12.10;;
74412;SDS011;62848;55.798;37.608;2022-08-21T15:06:05;21.70;;;12.27;;
74412;SDS011;62848;55.798;37.608;2022-08-21T15:08:36;21.60;;;12.85;;
74412;SDS011;62848;55.798;37.608;2022-08-21T15:11:02;19.55;;;13.00;;
74412;SDS011;62848;55.798;37.608;2022-08-21T15:13:30;20.25;;;11.48;;
74412;SDS011;62848;55.798;37.608;2022-08-21T15:15:57;13.95;;;9.15;;
74412;SDS011;62848;55.798;37.608;2022-08-21T15:18:25;13.07;;;7.28;;
74412;SDS011;62848;55.798;37.608;2022-08-21T15:20:52;15.18;;;7.25;;
74412;SDS011;62848;55.798;37.608;2022-08-21T15:23:19;17.58;;;7.80;;
74412;SDS011;62848;55.798;37.608;2022-08-21T15:25:46;18.75;;;7.03;;
74412;SDS011;62848;55.798;37.608;2022-08-21T15:28:14;11.07;;;6.80;;
74412;SDS011;62848;55.798;37.608;2022-08-21T15:30:43;15.17;;;6.40;;
74412;SDS011;62848;55.798;37.608;2022-08-21T15:33:10;15.13;;;5.38;;
74412;SDS011;62848;55.798;37.608;2022-08-21T15:35:37;18.10;;;6.07;;
74412;SDS011;62848;55.798;37.608;2022-08-21T15:38:04;7.85;;;4.35;;
74412;SDS011;62848;55.798;37.608;2022-08-21T15:40:30;15.63;;;4.28;;
74412;SDS011;62848;55.798;37.608;2022-08-21T15:42:58;10.57;;;3.55;;
74412;SDS011;62848;55.798;37.608;2022-08-21T15:45:26;11.23;;;3.13;;
74412;SDS011;62848;55.798;37.608;2022-08-21T15:47:53;10.32;;;3.33;;
74412;SDS011;62848;55.798;37.608;2022-08-21T15:50:20;8.82;;;3.47;;
74412;SDS011;62848;55.798;37.608;2022-08-21T15:52:48;9.20;;;3.20;;
74412;SDS011;62848;55.798;37.608;2022-08-21T15:55:14;6.82;;;2.58;;
74412;SDS011;62848;55.798;37.608;2022-08-21T15:57:49;11.80;;;2.90;;
74412;SDS011;62848;55.798;37.608;2022-08-21T16:00:22;7.68;;;2.90;;
74412;SDS011;62848;55.798;37.608;2022-08-21T16:02:50;8.43;;;3.10;;
74412;SDS011;62848;55.798;37.608;2022-08-21T16:05:20;12.43;;;3.15;;
74412;SDS011;62848;55.798;37.608;2022-08-21T16:07:48;11.07;;;3.60;;
74412;SDS011;62848;55.798;37.608;2022-08-21T16:10:27;9.48;;;3.17;;
74412;SDS011;62848;55.798;37.608;2022-08-21T16:12:57;8.95;;;3.00;;
74412;SDS011;62848;55.798;37.608;2022-08-21T16:15:28;8.90;;;2.88;;
74412;SDS011;62848;55.798;37.608;2022-08-21T16:17:55;15.32;;;3.45;;
74412;SDS011;62848;55.798;37.608;2022-08-21T16:20:23;8.80;;;3.72;;
74412;SDS011;62848;55.798;37.608;2022-08-21T16:22:52;13.88;;;4.45;;
74412;SDS011;62848;55.798;37.608;2022-08-21T16:25:19;12.27;;;6.00;;
74412;SDS011;62848;55.798;37.608;2022-08-21T16:27:47;13.07;;;7.20;;
74412;SDS011;62848;55.798;37.608;2022-08-21T16:30:17;13.27;;;8.27;;
74412;SDS011;62848;55.798;37.608;2022-08-21T16:32:45;18.30;;;12.30;;
74412;SDS011;62848;55.798;37.608;2022-08-21T16:35:13;19.65;;;13.70;;
74412;SDS011;62848;55.798;37.608;2022-08-21T16:37:42;28.10;;;13.02;;
74412;SDS011;62848;55.798;37.608;2022-08-21T16:40:09;25.15;;;16.00;;
74412;SDS011;62848;55.798;37.608;2022-08-21T16:42:37;30.48;;;16.65;;
74412;SDS011;62848;55.798;37.608;2022-08-21T16:45:05;35.50;;;22.95;;
74412;SDS011;62848;55.798;37.608;2022-08-21T16:47:34;37.70;;;22.80;;
74412;SDS011;62848;55.798;37.608;2022-08-21T16:50:00;47.40;;;27.90;;
74412;SDS011;62848;55.798;37.608;2022-08-21T16:52:29;61.25;;;25.65;;
74412;SDS011;62848;55.798;37.608;2022-08-21T16:54:55;53.13;;;31.42;;
74412;SDS011;62848;55.798;37.608;2022-08-21T16:57:22;61.15;;;25.63;;
74412;SDS011;62848;55.798;37.608;2022-08-21T16:59:49;49.22;;;31.85;;
74412;SDS011;62848;55.798;37.608;2022-08-21T17:02:50;58.60;;;30.00;;
74412;SDS011;62848;55.798;37.608;2022-08-21T17:05:11;55.95;;;31.70;;
74412;SDS011;62848;55.798;37.608;2022-08-21T17:07:38;53.42;;;35.60;;
74412;SDS011;62848;55.798;37.608;2022-08-21T17:10:06;53.55;;;29.65;;
74412;SDS011;62848;55.798;37.608;2022-08-21T17:12:33;44.08;;;31.27;;
74412;SDS011;62848;55.798;37.608;2022-08-21T17:15:03;44.25;;;33.33;;
74412;SDS011;62848;55.798;37.608;2022-08-21T17:17:34;43.13;;;33.47;;
74412;SDS011;62848;55.798;37.608;2022-08-21T17:20:00;48.58;;;32.42;;
74412;SDS011;62848;55.798;37.608;2022-08-21T17:22:28;46.58;;;30.17;;
74412;SDS011;62848;55.798;37.608;2022-08-21T17:24:54;46.80;;;33.70;;
74412;SDS011;62848;55.798;37.608;2022-08-21T17:27:21;50.70;;;31.88;;
74412;SDS011;62848;55.798;37.608;2022-08-21T17:29:49;45.40;;;34.50;;
74412;SDS011;62848;55.798;37.608;2022-08-21T17:32:17;45.90;;;33.85;;
74412;SDS011;62848;55.798;37.608;2022-08-21T17:34:44;50.15;;;33.97;;
74412;SDS011;62848;55.798;37.608;2022-08-21T17:37:11;46.25;;;31.10;;
74412;SDS011;62848;55.798;37.608;2022-08-21T17:39:38;43.17;;;32.60;;
74412;SDS011;62848;55.798;37.608;2022-08-21T17:42:11;51.72;;;33.47;;
74412;SDS011;62848;55.798;37.608;2022-08-21T17:44:41;43.80;;;33.42;;
74412;SDS011;62848;55.798;37.608;2022-08-21T17:47:09;42.42;;;32.92;;
74412;SDS011;62848;55.798;37.608;2022-08-21T17:49:37;44.25;;;33.92;;
74412;SDS011;62848;55.798;37.608;2022-08-21T17:52:03;42.40;;;32.75;;
74412;SDS011;62848;55.798;37.608;2022-08-21T17:54:31;39.55;;;31.77;;
74412;SDS011;62848;55.798;37.608;2022-08-21T17:56:59;42.35;;;32.13;;
74412;SDS011;62848;55.798;37.608;2022-08-21T17:59:25;44.80;;;31.20;;
74412;SDS011;62848;55.798;37.608;2022-08-21T18:01:52;39.88;;;30.90;;
74412;SDS011;62848;55.798;37.608;2022-08-21T18:04:25;35.97;;;29.35;;
74412;SDS011;62848;55.798;37.608;2022-08-21T18:06:53;34.70;;;28.83;;
74412;SDS011;62848;55.798;37.608;2022-08-21T18:09:20;41.65;;;29.40;;
74412;SDS011;62848;55.798;37.608;2022-08-21T18:11:53;39.15;;;28.17;;
74412;SDS011;62848;55.798;37.608;2022-08-21T18:14:28;33.05;;;27.52;;
74412;SDS011;62848;55.798;37.608;2022-08-21T18:16:57;33.92;;;26.40;;
74412;SDS011;62848;55.798;37.608;2022-08-21T18:19:24;38.45;;;27.30;;
74412;SDS011;62848;55.798;37.608;2022-08-21T18:21:54;31.45;;;25.02;;
74412;SDS011;62848;55.798;37.608;2022-08-21T18:24:21;30.58;;;24.27;;
74412;SDS011;62848;55.798;37.608;2022-08-21T18:26:48;32.88;;;23.92;;
74412;SDS011;62848;55.798;37.608;2022-08-21T18:29:17;33.08;;;23.65;;
74412;SDS011;62848;55.798;37.608;2022-08-21T18:31:46;29.27;;;22.27;;
74412;SDS011;62848;55.798;37.608;2022-08-21T18:34:19;30.73;;;22.80;;
74412;SDS011;62848;55.798;37.608;2022-08-21T18:36:50;30.38;;;20.95;;
74412;SDS011;62848;55.798;37.608;2022-08-21T18:39:18;29.80;;;20.98;;
74412;SDS011;62848;55.798;37.608;2022-08-21T18:41:45;35.88;;;21.90;;
74412;SDS011;62848;55.798;37.608;2022-08-21T18:44:13;24.58;;;18.98;;
74412;SDS011;62848;55.798;37.608;2022-08-21T18:46:42;29.42;;;18.88;;
74412;SDS011;62848;55.798;37.608;2022-08-21T18:49:16;18.85;;;16.17;;
74412;SDS011;62848;55.798;37.608;2022-08-21T18:51:42;26.95;;;17.42;;
74412;SDS011;62848;55.798;37.608;2022-08-21T18:54:09;23.17;;;16.58;;
74412;SDS011;62848;55.798;37.608;2022-08-21T18:56:35;21.85;;;16.20;;
74412;SDS011;62848;55.798;37.608;2022-08-21T18:59:02;21.90;;;16.60;;
74412;SDS011;62848;55.798;37.608;2022-08-21T19:01:30;22.10;;;15.23;;
74412;SDS011;62848;55.798;37.608;2022-08-21T19:03:57;22.35;;;14.93;;
74412;SDS011;62848;55.798;37.608;2022-08-21T19:06:23;20.73;;;14.25;;
74412;SDS011;62848;55.798;37.608;2022-08-21T19:08:49;23.33;;;15.00;;
74412;SDS011;62848;55.798;37.608;2022-08-21T19:11:16;20.92;;;14.43;;
74412;SDS011;62848;55.798;37.608;2022-08-21T19:13:43;21.88;;;14.70;;
74412;SDS011;62848;55.798;37.608;2022-08-21T19:16:10;20.13;;;14.80;;
74412;SDS011;62848;55.798;37.608;2022-08-21T19:18:38;22.73;;;13.70;;
74412;SDS011;62848;55.798;37.608;2022-08-21T19:21:06;25.40;;;12.68;;
74412;SDS011;62848;55.798;37.608;2022-08-21T19:23:32;17.23;;;12.10;;
74412;SDS011;62848;55.798;37.608;2022-08-21T19:25:59;19.85;;;10.60;;
74412;SDS011;62848;55.798;37.608;2022-08-21T19:28:31;16.55;;;10.07;;
74412;SDS011;62848;55.798;37.608;2022-08-21T19:31:13;19.13;;;11.20;;
74412;SDS011;62848;55.798;37.608;2022-08-21T19:33:52;16.58;;;9.50;;
74412;SDS011;62848;55.798;37.608;2022-08-21T19:36:23;16.75;;;9.55;;
74412;SDS011;62848;55.798;37.608;2022-08-21T19:38:50;14.43;;;8.63;;
74412;SDS011;62848;55.798;37.608;2022-08-21T19:41:16;16.15;;;8.18;;
74412;SDS011;62848;55.798;37.608;2022-08-21T19:43:49;12.52;;;7.13;;
74412;SDS011;62848;55.798;37.608;2022-08-21T19:46:22;11.52;;;7.60;;
74412;SDS011;62848;55.798;37.608;2022-08-21T19:49:09;18.38;;;7.88;;
74412;SDS011;62848;55.798;37.608;2022-08-21T19:51:41;13.13;;;7.53;;
74412;SDS011;62848;55.798;37.608;2022-08-21T19:54:10;12.05;;;7.43;;
74412;SDS011;62848;55.798;37.608;2022-08-21T19:56:46;13.45;;;7.25;;
74412;SDS011;62848;55.798;37.608;2022-08-21T19:59:16;13.35;;;7.45;;
74412;SDS011;62848;55.798;37.608;2022-08-21T20:01:44;15.45;;;6.57;;
74412;SDS011;62848;55.798;37.608;2022-08-21T20:04:11;17.67;;;6.07;;
74412;SDS011;62848;55.798;37.608;2022-08-21T20:06:38;13.40;;;6.68;;
74412;SDS011;62848;55.798;37.608;2022-08-21T20:09:05;15.10;;;6.38;;
74412;SDS011;62848;55.798;37.608;2022-08-21T20:11:35;11.23;;;5.82;;
74412;SDS011;62848;55.798;37.608;2022-08-21T20:14:04;9.45;;;5.93;;
74412;SDS011;62848;55.798;37.608;2022-08-21T20:16:33;10.45;;;5.82;;
74412;SDS011;62848;55.798;37.608;2022-08-21T20:19:01;13.95;;;6.20;;
74412;SDS011;62848;55.798;37.608;2022-08-21T20:21:29;13.43;;;6.05;;
74412;SDS011;62848;55.798;37.608;2022-08-21T20:23:57;13.40;;;5.68;;
74412;SDS011;62848;55.798;37.608;2022-08-21T20:26:24;12.43;;;5.68;;
74412;SDS011;62848;55.798;37.608;2022-08-21T20:28:50;14.93;;;6.20;;
74412;SDS011;62848;55.798;37.608;2022-08-21T20:31:17;19.60;;;6.40;;
74412;SDS011;62848;55.798;37.608;2022-08-21T20:33:45;11.63;;;5.90;;
74412;SDS011;62848;55.798;37.608;2022-08-21T20:36:12;9.13;;;5.32;;
74412;SDS011;62848;55.798;37.608;2022-08-21T20:38:39;12.05;;;5.45;;
74412;SDS011;62848;55.798;37.608;2022-08-21T20:41:05;9.13;;;5.18;;
74412;SDS011;62848;55.798;37.608;2022-08-21T20:43:33;16.08;;;5.75;;
74412;SDS011;62848;55.798;37.608;2022-08-21T20:46:01;10.20;;;5.45;;
74412;SDS011;62848;55.798;37.608;2022-08-21T20:48:32;9.40;;;4.88;;
74412;SDS011;62848;55.798;37.608;2022-08-21T20:56:10;12.85;;;5.93;;
74412;SDS011;62848;55.798;37.608;2022-08-21T20:58:57;11.68;;;5.57;;
74412;SDS011;62848;55.798;37.608;2022-08-21T21:01:46;15.02;;;6.03;;
74412;SDS011;62848;55.798;37.608;2022-08-21T21:06:57;14.40;;;5.80;;
74412;SDS011;62848;55.798;37.608;2022-08-21T21:09:44;13.20;;;6.35;;
74412;SDS011;62848;55.798;37.608;2022-08-21T21:12:16;11.98;;;6.13;;
74412;SDS011;62848;55.798;37.608;2022-08-21T21:14:53;9.90;;;5.60;;
74412;SDS011;62848;55.798;37.608;2022-08-21T21:17:24;14.18;;;6.50;;
74412;SDS011;62848;55.798;37.608;2022-08-21T21:20:19;11.48;;;6.13;;
74412;SDS011;62848;55.798;37.608;2022-08-21T21:22:54;11.15;;;6.10;;
74412;SDS011;62848;55.798;37.608;2022-08-21T21:25:36;13.02;;;5.97;;
74412;SDS011;62848;55.798;37.608;2022-08-21T21:28:15;14.32;;;5.97;;
74412;SDS011;62848;55.798;37.608;2022-08-21T21:30:50;11.80;;;6.60;;
74412;SDS011;62848;55.798;37.608;2022-08-21T21:33:16;11.05;;;6.60;;
74412;SDS011;62848;55.798;37.608;2022-08-21T21:35:53;13.90;;;6.30;;
74412;SDS011;62848;55.798;37.608;2022-08-21T21:38:49;10.45;;;5.43;;
74412;SDS011;62848;55.798;37.608;2022-08-21T21:41:29;13.05;;;5.80;;
74412;SDS011;62848;55.798;37.608;2022-08-21T21:49:55;15.98;;;6.10;;
74412;SDS011;62848;55.798;37.608;2022-08-21T22:00:45;12.48;;;6.53;;
74412;SDS011;62848;55.798;37.608;2022-08-21T22:06:11;13.77;;;6.60;;
74412;SDS011;62848;55.798;37.608;2022-08-21T22:11:57;11.27;;;6.15;;
74412;SDS011;62848;55.798;37.608;2022-08-21T22:14:45;15.40;;;6.70;;
74412;SDS011;62848;55.798;37.608;2022-08-21T22:19:58;14.77;;;7.53;;
74412;SDS011;62848;55.798;37.608;2022-08-21T22:22:30;17.40;;;8.98;;
74412;SDS011;62848;55.798;37.608;2022-08-21T22:25:00;16.35;;;8.75;;
74412;SDS011;62848;55.798;37.608;2022-08-21T22:27:39;22.80;;;9.30;;
74412;SDS011;62848;55.798;37.608;2022-08-21T22:30:07;19.58;;;10.07;;
74412;SDS011;62848;55.798;37.608;2022-08-21T22:32:44;16.80;;;10.13;;
74412;SDS011;62848;55.798;37.608;2022-08-21T22:35:23;18.25;;;11.85;;
74412;SDS011;62848;55.798;37.608;2022-08-21T22:37:57;20.98;;;11.10;;
74412;SDS011;62848;55.798;37.608;2022-08-21T22:40:29;17.83;;;10.98;;
74412;SDS011;62848;55.798;37.608;2022-08-21T22:43:02;14.55;;;10.85;;
74412;SDS011;62848;55.798;37.608;2022-08-21T22:45:59;19.05;;;10.68;;
74412;SDS011;62848;55.798;37.608;2022-08-21T22:48:35;21.33;;;11.65;;
74412;SDS011;62848;55.798;37.608;2022-08-21T22:51:23;19.60;;;12.05;;
74412;SDS011;62848;55.798;37.608;2022-08-21T22:54:03;26.25;;;11.73;;
74412;SDS011;62848;55.798;37.608;2022-08-21T22:56:42;17.10;;;10.85;;
74412;SDS011;62848;55.798;37.608;2022-08-21T22:59:31;19.52;;;10.70;;
74412;SDS011;62848;55.798;37.608;2022-08-21T23:02:34;19.92;;;10.65;;
74412;SDS011;62848;55.798;37.608;2022-08-21T23:07:54;20.67;;;10.80;;
74412;SDS011;62848;55.798;37.608;2022-08-21T23:12:57;14.30;;;9.98;;
74412;SDS011;62848;55.798;37.608;2022-08-21T23:15:24;23.38;;;10.10;;
74412;SDS011;62848;55.798;37.608;2022-08-21T23:18:10;16.65;;;9.88;;
74412;SDS011;62848;55.798;37.608;2022-08-21T23:21:04;14.60;;;9.27;;
74412;SDS011;62848;55.798;37.608;2022-08-21T23:23:36;17.20;;;9.63;;
74412;SDS011;62848;55.798;37.608;2022-08-21T23:26:24;14.15;;;9.00;;
74412;SDS011;62848;55.798;37.608;2022-08-21T23:29:17;21.33;;;10.40;;
74412;SDS011;62848;55.798;37.608;2022-08-21T23:32:03;15.75;;;10.85;;
74412;SDS011;62848;55.798;37.608;2022-08-21T23:34:56;16.75;;;10.65;;
74412;SDS011;62848;55.798;37.608;2022-08-21T23:37:42;20.58;;;11.35;;
74412;SDS011;62848;55.798;37.608;2022-08-21T23:54:31;25.88;;;15.55;;
